Time;durP1;ratioP1;P1;durP2;ratioP2;P2;SDS_P1;SDS_P2;PMS_P1;PMS_P2;Temp;Humidity;BMP_temperature;BMP_pressure;BME280_temperature;BME280_humidity;BME280_pressure;Samples;Min_cycle;Max_cycle;Signal;HPM_P1;HPM_P2
2023/08/25 00:01:13;;;;;;;21.52;13.38;;;;;;;;;;5033110;28;20021;-63
2023/08/25 00:03:39;;;;;;;21.70;13.27;;;;;;;;;;5033181;28;20560;-62
2023/08/25 00:06:05;;;;;;;19.88;13.18;;;;;;;;;;5032965;28;20032;-64
2023/08/25 00:08:31;;;;;;;21.75;14.23;;;;;;;;;;5032584;28;20059;-63
2023/08/25 00:10:57;;;;;;;21.23;13.77;;;;;;;;;;5033128;28;20072;-63
2023/08/25 00:13:23;;;;;;;21.73;13.57;;;;;;;;;;5032916;28;20474;-62
2023/08/25 00:15:50;;;;;;;21.98;14.20;;;;;;;;;;5033092;28;20026;-61
2023/08/25 00:18:16;;;;;;;20.40;12.98;;;;;;;;;;5032454;28;20108;-62
2023/08/25 00:20:41;;;;;;;24.83;13.13;;;;;;;;;;5032868;28;20053;-61
2023/08/25 00:23:08;;;;;;;21.45;13.30;;;;;;;;;;5032966;28;20033;-61
2023/08/25 00:25:34;;;;;;;18.42;12.23;;;;;;;;;;5032089;28;20025;-61
2023/08/25 00:28:00;;;;;;;20.38;10.77;;;;;;;;;;5032846;28;20041;-62
2023/08/25 00:30:26;;;;;;;19.08;11.50;;;;;;;;;;5032929;28;20029;-62
2023/08/25 00:32:52;;;;;;;21.83;11.90;;;;;;;;;;5032647;28;20104;-60
2023/08/25 00:35:18;;;;;;;21.20;12.85;;;;;;;;;;5032160;28;20074;-61
2023/08/25 00:37:44;;;;;;;19.98;12.90;;;;;;;;;;5032704;28;20429;-61
2023/08/25 00:40:11;;;;;;;21.05;12.85;;;;;;;;;;5032373;28;20101;-62
2023/08/25 00:42:37;;;;;;;22.05;12.57;;;;;;;;;;5065804;23;20109;-58
2023/08/25 00:45:03;;;;;;;20.20;13.13;;;;;;;;;;5070378;28;20400;-56
2023/08/25 00:47:29;;;;;;;22.17;13.68;;;;;;;;;;5071076;28;20499;-58
2023/08/25 00:49:55;;;;;;;21.60;12.35;;;;;;;;;;5071095;28;20108;-57
2023/08/25 00:52:21;;;;;;;21.55;12.63;;;;;;;;;;5070937;28;20066;-59
2023/08/25 00:54:50;;;;;;;20.33;11.95;;;;;;;;;;5070929;28;20067;-54
2023/08/25 00:57:16;;;;;;;;;;;;;;;;;;5071493;28;20056;-56
2023/08/25 00:59:42;;;;;;;26.52;12.68;;;;;;;;;;5053021;28;19904;-55
2023/08/25 01:02:08;;;;;;;21.48;12.93;;;;;;;;;;5071583;28;20057;-57
2023/08/25 01:04:34;;;;;;;20.45;13.23;;;;;;;;;;5053407;28;20488;-58
2023/08/25 01:07:00;;;;;;;20.58;13.55;;;;;;;;;;5071102;28;20382;-56
2023/08/25 01:09:27;;;;;;;22.98;14.25;;;;;;;;;;5071345;28;20055;-57
2023/08/25 01:11:56;;;;;;;21.80;14.50;;;;;;;;;;5070959;28;20055;-58
2023/08/25 01:14:30;;;;;;;25.70;16.20;;;;;;;;;;5070516;28;20028;-56
2023/08/25 01:17:00;;;;;;;28.33;17.15;;;;;;;;;;5052859;28;20025;-56
2023/08/25 01:19:44;;;;;;;26.95;16.85;;;;;;;;;;5052790;28;20111;-58
2023/08/25 01:22:14;;;;;;;26.20;16.00;;;;;;;;;;5074747;28;20037;-58
2023/08/25 01:24:42;;;;;;;29.88;17.50;;;;;;;;;;5074852;28;20024;-57
2023/08/25 01:27:08;;;;;;;25.00;16.85;;;;;;;;;;5074862;28;20082;-59
2023/08/25 01:29:35;;;;;;;26.05;18.15;;;;;;;;;;5074879;28;20116;-57
2023/08/25 01:32:02;;;;;;;28.27;19.55;;;;;;;;;;5074738;28;20061;-57
2023/08/25 01:34:28;;;;;;;26.67;19.67;;;;;;;;;;5074343;28;20036;-58
2023/08/25 01:37:03;;;;;;;28.90;20.10;;;;;;;;;;5074521;28;20024;-58
2023/08/25 01:39:31;;;;;;;27.83;18.88;;;;;;;;;;5074546;28;20028;-58
2023/08/25 01:41:59;;;;;;;28.07;19.57;;;;;;;;;;5074321;28;20423;-58
2023/08/25 01:44:26;;;;;;;27.90;21.15;;;;;;;;;;5074391;28;20025;-58
2023/08/25 01:46:54;;;;;;;29.65;21.80;;;;;;;;;;5074593;28;20037;-57
2023/08/25 01:49:21;;;;;;;29.17;21.48;;;;;;;;;;5082855;28;20063;-58
2023/08/25 01:51:48;;;;;;;30.15;22.38;;;;;;;;;;5085537;28;20025;-57
2023/08/25 01:54:14;;;;;;;30.67;21.77;;;;;;;;;;5076245;28;20029;-57
2023/08/25 01:56:40;;;;;;;31.05;21.15;;;;;;;;;;5073756;28;20052;-54
2023/08/25 01:59:06;;;;;;;28.35;21.40;;;;;;;;;;5054376;28;20150;-58
2023/08/25 02:01:32;;;;;;;32.58;21.98;;;;;;;;;;5054069;28;20454;-57
2023/08/25 02:03:58;;;;;;;35.53;23.33;;;;;;;;;;5036074;28;20021;-57
2023/08/25 02:06:24;;;;;;;30.45;21.70;;;;;;;;;;5053893;28;20025;-57
2023/08/25 02:08:50;;;;;;;30.75;21.85;;;;;;;;;;5036210;28;20044;-58
2023/08/25 02:11:16;;;;;;;33.45;22.75;;;;;;;;;;5053795;28;20385;-58
2023/08/25 02:13:42;;;;;;;36.75;24.42;;;;;;;;;;5053887;28;20021;-58
2023/08/25 02:16:08;;;;;;;36.30;24.20;;;;;;;;;;5035668;28;20041;-54
2023/08/25 02:18:34;;;;;;;37.33;24.42;;;;;;;;;;5053900;28;20139;-58
2023/08/25 02:21:00;;;;;;;31.48;22.35;;;;;;;;;;5035988;28;20040;-58
2023/08/25 02:23:26;;;;;;;31.17;23.55;;;;;;;;;;5053498;28;20032;-58
2023/08/25 02:25:52;;;;;;;33.60;22.17;;;;;;;;;;5053326;28;20036;-58
2023/08/25 02:28:18;;;;;;;32.40;22.80;;;;;;;;;;5053564;28;20086;-58
2023/08/25 02:30:44;;;;;;;34.15;22.30;;;;;;;;;;5053127;28;20025;-58
2023/08/25 02:33:10;;;;;;;32.83;23.70;;;;;;;;;;5053336;28;20036;-58
2023/08/25 02:35:36;;;;;;;33.00;23.60;;;;;;;;;;5053209;28;20056;-57
2023/08/25 02:38:06;;;;;;;31.10;22.80;;;;;;;;;;5053449;28;20017;-57
2023/08/25 02:40:32;;;;;;;32.30;23.10;;;;;;;;;;5068453;28;20028;-57
2023/08/25 02:43:03;;;;;;;32.38;21.63;;;;;;;;;;5074389;28;20032;-57
2023/08/25 02:45:29;;;;;;;33.75;24.80;;;;;;;;;;5057533;28;20055;-56
2023/08/25 02:47:55;;;;;;;35.40;23.33;;;;;;;;;;5054607;28;20086;-58
2023/08/25 02:50:22;;;;;;;38.40;24.20;;;;;;;;;;5056263;28;20029;-59
2023/08/25 02:52:48;;;;;;;34.90;24.35;;;;;;;;;;5053164;28;20032;-58
2023/08/25 02:55:16;;;;;;;36.17;22.98;;;;;;;;;;5035157;28;20021;-58
2023/08/25 02:57:45;;;;;;;34.58;23.60;;;;;;;;;;5053254;28;20025;-57
2023/08/25 03:00:12;;;;;;;36.90;26.00;;;;;;;;;;5053109;28;20108;-58
2023/08/25 03:02:38;;;;;;;33.40;24.27;;;;;;;;;;5052938;28;20029;-57
2023/08/25 03:05:04;;;;;;;33.65;24.35;;;;;;;;;;5052661;28;20556;-58
2023/08/25 03:07:30;;;;;;;40.15;26.27;;;;;;;;;;5052801;28;20436;-57
2023/08/25 03:09:56;;;;;;;35.65;24.95;;;;;;;;;;5052779;28;20036;-59
2023/08/25 03:12:22;;;;;;;36.63;26.35;;;;;;;;;;5052562;28;20069;-58
2023/08/25 03:14:48;;;;;;;41.95;27.08;;;;;;;;;;5052585;28;20046;-58
2023/08/25 03:17:14;;;;;;;40.85;27.33;;;;;;;;;;5052847;28;20028;-59
2023/08/25 03:19:41;;;;;;;37.03;26.50;;;;;;;;;;5052618;28;20079;-58
2023/08/25 03:22:08;;;;;;;38.92;26.75;;;;;;;;;;5052712;28;20096;-58
2023/08/25 03:24:33;;;;;;;38.95;26.65;;;;;;;;;;5052272;28;20044;-56
2023/08/25 03:27:00;;;;;;;38.10;26.13;;;;;;;;;;5052435;28;20024;-56
2023/08/25 03:29:26;;;;;;;39.15;26.85;;;;;;;;;;5052455;28;20082;-58
2023/08/25 03:31:52;;;;;;;39.17;28.00;;;;;;;;;;5034296;28;20501;-57
2023/08/25 03:34:19;;;;;;;37.80;26.50;;;;;;;;;;5057411;28;20025;-56
2023/08/25 03:36:45;;;;;;;41.03;27.33;;;;;;;;;;5065137;28;20040;-56
2023/08/25 03:39:11;;;;;;;40.65;26.83;;;;;;;;;;5052460;28;20021;-56
2023/08/25 03:41:37;;;;;;;46.97;29.42;;;;;;;;;;5052006;28;20103;-58
2023/08/25 03:44:03;;;;;;;43.90;29.42;;;;;;;;;;5050983;28;20025;-58
2023/08/25 03:46:31;;;;;;;37.78;26.85;;;;;;;;;;5052394;28;20696;-58
2023/08/25 03:48:57;;;;;;;38.63;26.38;;;;;;;;;;5052006;28;20083;-58
2023/08/25 03:51:24;;;;;;;40.78;25.95;;;;;;;;;;5051486;28;20036;-57
2023/08/25 03:53:49;;;;;;;39.17;26.70;;;;;;;;;;5051699;28;20028;-62
2023/08/25 03:56:15;;;;;;;42.67;28.40;;;;;;;;;;5051558;28;20025;-57
2023/08/25 03:58:42;;;;;;;40.38;27.83;;;;;;;;;;5051910;28;20071;-58
2023/08/25 04:01:08;;;;;;;45.00;29.15;;;;;;;;;;5051905;28;20221;-59
2023/08/25 04:03:34;;;;;;;39.75;28.65;;;;;;;;;;5051612;28;20060;-58
2023/08/25 04:06:00;;;;;;;42.17;30.33;;;;;;;;;;5051642;28;20032;-56
2023/08/25 04:08:26;;;;;;;45.40;33.03;;;;;;;;;;5051660;28;20375;-58
2023/08/25 04:10:52;;;;;;;46.90;32.30;;;;;;;;;;5051494;28;20032;-57
2023/08/25 04:13:21;;;;;;;47.35;32.83;;;;;;;;;;5051308;28;20372;-57
2023/08/25 04:15:55;;;;;;;46.58;33.63;;;;;;;;;;5051238;28;20028;-56
2023/08/25 04:18:21;;;;;;;50.25;32.67;;;;;;;;;;5051550;28;20033;-58
2023/08/25 04:20:48;;;;;;;49.53;35.70;;;;;;;;;;5051354;28;20036;-58
2023/08/25 04:23:14;;;;;;;43.72;33.22;;;;;;;;;;5051213;28;20131;-58
2023/08/25 04:25:40;;;;;;;47.65;32.47;;;;;;;;;;5051145;28;20060;-58
2023/08/25 04:28:06;;;;;;;47.42;31.67;;;;;;;;;;5051396;28;20033;-58
2023/08/25 04:30:32;;;;;;;49.50;32.60;;;;;;;;;;5050923;28;20439;-58
2023/08/25 04:32:58;;;;;;;52.63;34.58;;;;;;;;;;5050720;28;20029;-56
2023/08/25 04:35:24;;;;;;;56.58;37.65;;;;;;;;;;5032648;28;20480;-57
2023/08/25 04:37:50;;;;;;;55.67;38.00;;;;;;;;;;5050879;28;20024;-57
2023/08/25 04:40:20;;;;;;;57.92;36.50;;;;;;;;;;5051188;28;20017;-56
2023/08/25 04:42:46;;;;;;;54.55;37.67;;;;;;;;;;5050797;28;20068;-54
2023/08/25 04:45:12;;;;;;;51.42;34.60;;;;;;;;;;5032779;28;20054;-57
2023/08/25 04:47:39;;;;;;;48.05;33.38;;;;;;;;;;5050889;28;20661;-57
2023/08/25 04:50:07;;;;;;;46.58;33.60;;;;;;;;;;5050918;28;20033;-55
2023/08/25 04:52:34;;;;;;;47.03;34.28;;;;;;;;;;5050654;28;20100;-58
2023/08/25 04:55:00;;;;;;;48.00;35.22;;;;;;;;;;5050810;28;20044;-54
2023/08/25 04:57:26;;;;;;;49.20;35.58;;;;;;;;;;5051180;28;20091;-56
2023/08/25 04:59:52;;;;;;;51.47;36.42;;;;;;;;;;5033260;28;20029;-59
2023/08/25 05:02:18;;;;;;;54.38;37.63;;;;;;;;;;5033412;28;20028;-53
2023/08/25 05:04:44;;;;;;;53.15;39.08;;;;;;;;;;5050985;28;20025;-55
2023/08/25 05:07:10;;;;;;;53.15;37.75;;;;;;;;;;5053476;28;20048;-57
2023/08/25 05:09:36;;;;;;;55.65;37.85;;;;;;;;;;5053380;28;20047;-58
2023/08/25 05:12:02;;;;;;;50.97;36.72;;;;;;;;;;5051565;28;20853;-58
2023/08/25 05:14:28;;;;;;;51.13;37.40;;;;;;;;;;5050883;28;20029;-56
2023/08/25 05:16:54;;;;;;;59.53;37.70;;;;;;;;;;5050808;28;20055;-62
2023/08/25 05:19:21;;;;;;;58.78;38.10;;;;;;;;;;5050378;28;20112;-58
2023/08/25 05:21:47;;;;;;;49.97;38.35;;;;;;;;;;5032129;28;20497;-57
2023/08/25 05:24:16;;;;;;;52.65;38.05;;;;;;;;;;5050091;28;20021;-57
2023/08/25 05:26:43;;;;;;;56.05;39.47;;;;;;;;;;5050447;28;20389;-55
2023/08/25 05:29:09;;;;;;;60.05;38.72;;;;;;;;;;5050692;28;20036;-58
2023/08/25 05:31:35;;;;;;;54.65;38.72;;;;;;;;;;5032493;28;20037;-57
2023/08/25 05:34:01;;;;;;;53.20;38.40;;;;;;;;;;5050179;28;20025;-57
2023/08/25 05:36:27;;;;;;;57.85;39.55;;;;;;;;;;5050471;28;20345;-53
2023/08/25 05:38:53;;;;;;;52.53;37.85;;;;;;;;;;5050468;28;20017;-59
2023/08/25 05:41:19;;;;;;;45.33;35.65;;;;;;;;;;5049847;28;20043;-57
2023/08/25 05:43:45;;;;;;;53.00;35.60;;;;;;;;;;5050305;28;20494;-57
2023/08/25 05:46:11;;;;;;;45.55;35.55;;;;;;;;;;5050080;28;20100;-57
2023/08/25 05:48:39;;;;;;;55.22;37.38;;;;;;;;;;5050046;28;20025;-58
2023/08/25 05:51:05;;;;;;;47.83;35.13;;;;;;;;;;5031781;28;20378;-58
2023/08/25 05:53:31;;;;;;;48.40;35.15;;;;;;;;;;5049658;28;20057;-52
2023/08/25 05:55:57;;;;;;;42.95;33.85;;;;;;;;;;5049683;28;20481;-58
2023/08/25 05:58:23;;;;;;;41.78;32.60;;;;;;;;;;5049982;28;20017;-56
2023/08/25 06:00:50;;;;;;;39.95;30.30;;;;;;;;;;5031998;28;20448;-58
2023/08/25 06:03:16;;;;;;;44.05;32.70;;;;;;;;;;5049999;28;20021;-58
2023/08/25 06:05:42;;;;;;;45.13;32.28;;;;;;;;;;5031835;28;20032;-58
2023/08/25 06:08:08;;;;;;;40.22;31.00;;;;;;;;;;5053728;28;20041;-55
2023/08/25 06:10:35;;;;;;;42.97;32.47;;;;;;;;;;5053885;28;20035;-58
2023/08/25 06:13:01;;;;;;;38.72;30.05;;;;;;;;;;5053696;28;20029;-58
2023/08/25 06:15:27;;;;;;;42.30;31.10;;;;;;;;;;5053340;28;20025;-57
2023/08/25 06:17:53;;;;;;;38.85;28.92;;;;;;;;;;5053959;28;20523;-57
2023/08/25 06:20:21;;;;;;;38.95;30.40;;;;;;;;;;5053517;28;20025;-55
2023/08/25 06:22:47;;;;;;;40.80;30.15;;;;;;;;;;5035735;28;20029;-58
2023/08/25 06:25:13;;;;;;;38.47;31.45;;;;;;;;;;5053143;28;20504;-57
2023/08/25 06:27:39;;;;;;;38.65;29.35;;;;;;;;;;5053445;28;20033;-58
2023/08/25 06:30:05;;;;;;;36.35;28.17;;;;;;;;;;5053423;28;20025;-57
2023/08/25 06:32:31;;;;;;;38.83;30.15;;;;;;;;;;5035129;28;20044;-58
2023/08/25 06:34:57;;;;;;;40.00;27.33;;;;;;;;;;5052854;28;20030;-58
2023/08/25 06:37:23;;;;;;;37.25;28.55;;;;;;;;;;5053181;28;20017;-58
2023/08/25 06:39:49;;;;;;;33.30;25.95;;;;;;;;;;5053273;28;20096;-59
2023/08/25 06:42:16;;;;;;;37.13;26.58;;;;;;;;;;5054356;28;20114;-56
2023/08/25 06:44:42;;;;;;;34.95;25.60;;;;;;;;;;5053023;28;20028;-58
2023/08/25 06:47:08;;;;;;;35.45;24.77;;;;;;;;;;5053722;28;20036;-59
2023/08/25 06:49:34;;;;;;;31.73;24.08;;;;;;;;;;5052975;28;20056;-56
2023/08/25 06:52:00;;;;;;;34.90;24.15;;;;;;;;;;5052777;28;20124;-58
2023/08/25 06:54:26;;;;;;;31.55;23.80;;;;;;;;;;5052876;28;20036;-58
2023/08/25 06:56:52;;;;;;;30.55;23.77;;;;;;;;;;5052765;28;20021;-57
2023/08/25 06:59:19;;;;;;;31.50;23.48;;;;;;;;;;5052772;28;20049;-57
2023/08/25 07:01:45;;;;;;;33.65;24.17;;;;;;;;;;5053198;28;20495;-58
2023/08/25 07:04:11;;;;;;;30.92;22.88;;;;;;;;;;5052714;28;20416;-58
2023/08/25 07:06:37;;;;;;;29.10;21.98;;;;;;;;;;5034875;28;20124;-59
2023/08/25 07:09:04;;;;;;;29.65;22.67;;;;;;;;;;5061148;28;20031;-57
2023/08/25 07:11:30;;;;;;;34.08;23.45;;;;;;;;;;5039533;28;20025;-57
2023/08/25 07:13:56;;;;;;;31.50;22.45;;;;;;;;;;5034595;28;20025;-57
2023/08/25 07:16:21;;;;;;;30.00;21.63;;;;;;;;;;5034646;28;20114;-58
2023/08/25 07:18:47;;;;;;;27.92;21.05;;;;;;;;;;5052527;28;20025;-59
2023/08/25 07:21:13;;;;;;;27.50;22.00;;;;;;;;;;5052187;28;20025;-55
2023/08/25 07:23:43;;;;;;;27.70;20.90;;;;;;;;;;5052178;28;20101;-57
2023/08/25 07:26:09;;;;;;;29.05;20.58;;;;;;;;;;5051975;28;20025;-56
2023/08/25 07:28:35;;;;;;;27.85;19.17;;;;;;;;;;5052279;28;20079;-55
2023/08/25 07:31:04;;;;;;;26.75;20.10;;;;;;;;;;5052212;28;20033;-58
2023/08/25 07:33:30;;;;;;;26.05;19.15;;;;;;;;;;5052341;28;20017;-54
2023/08/25 07:35:57;;;;;;;27.80;20.65;;;;;;;;;;5051981;28;20029;-56
2023/08/25 07:38:23;;;;;;;28.83;20.48;;;;;;;;;;5052214;28;20029;-54
2023/08/25 07:40:49;;;;;;;26.52;19.45;;;;;;;;;;5052405;28;20021;-53
2023/08/25 07:43:15;;;;;;;24.48;19.20;;;;;;;;;;5034370;28;20047;-54
2023/08/25 07:45:42;;;;;;;28.98;20.40;;;;;;;;;;5064804;28;20032;-54
2023/08/25 07:48:08;;;;;;;27.45;20.90;;;;;;;;;;5060796;28;20082;-57
2023/08/25 07:50:34;;;;;;;26.98;20.30;;;;;;;;;;5069744;28;20366;-55
2023/08/25 07:53:00;;;;;;;29.30;21.42;;;;;;;;;;5053917;28;20115;-53
2023/08/25 07:55:27;;;;;;;25.70;21.23;;;;;;;;;;5072054;28;20024;-52
2023/08/25 07:57:53;;;;;;;30.45;22.20;;;;;;;;;;5063116;28;20504;-55
2023/08/25 08:00:19;;;;;;;28.17;21.25;;;;;;;;;;5069412;28;20132;-55
2023/08/25 08:02:46;;;;;;;27.05;19.25;;;;;;;;;;5072362;28;20021;-58
2023/08/25 08:05:12;;;;;;;29.40;21.63;;;;;;;;;;5067170;28;20424;-60
2023/08/25 08:07:38;;;;;;;26.17;20.02;;;;;;;;;;5057494;28;20048;-57
2023/08/25 08:10:05;;;;;;;27.60;20.35;;;;;;;;;;5054411;28;20028;-57
2023/08/25 08:12:31;;;;;;;28.48;20.70;;;;;;;;;;5071412;28;20028;-57
2023/08/25 08:14:57;;;;;;;31.13;20.80;;;;;;;;;;5070853;28;20472;-57
2023/08/25 08:17:25;;;;;;;27.23;19.75;;;;;;;;;;5071091;28;20040;-58
2023/08/25 08:19:51;;;;;;;29.10;20.80;;;;;;;;;;5058692;28;20041;-56
2023/08/25 08:22:17;;;;;;;31.05;21.90;;;;;;;;;;5033548;28;20032;-54
2023/08/25 08:24:50;;;;;;;29.70;21.40;;;;;;;;;;5067088;28;20056;-55
2023/08/25 08:27:16;;;;;;;28.27;21.08;;;;;;;;;;5066513;28;20024;-55
2023/08/25 08:29:42;;;;;;;29.98;22.85;;;;;;;;;;5058135;28;20086;-54
2023/08/25 08:32:09;;;;;;;32.40;24.50;;;;;;;;;;5067491;28;20030;-54
2023/08/25 08:34:35;;;;;;;32.53;26.80;;;;;;;;;;5069815;28;20032;-55
2023/08/25 08:37:01;;;;;;;38.45;30.58;;;;;;;;;;5054383;28;20029;-55
2023/08/25 08:39:27;;;;;;;38.55;32.40;;;;;;;;;;5069733;28;20341;-57
2023/08/25 08:41:53;;;;;;;34.88;31.08;;;;;;;;;;5070134;28;20033;-58
2023/08/25 08:44:20;;;;;;;37.65;33.58;;;;;;;;;;5052268;28;20031;-56
2023/08/25 08:46:49;;;;;;;41.28;35.78;;;;;;;;;;5071503;28;20032;-65
2023/08/25 08:49:15;;;;;;;39.75;33.78;;;;;;;;;;5071543;28;20124;-56
2023/08/25 08:51:43;;;;;;;36.75;32.72;;;;;;;;;;5071229;28;20544;-55
2023/08/25 08:54:09;;;;;;;45.03;38.17;;;;;;;;;;5070857;28;20392;-59
2023/08/25 08:56:35;;;;;;;45.00;39.70;;;;;;;;;;5071148;28;20025;-56
2023/08/25 08:59:06;;;;;;;43.83;39.10;;;;;;;;;;5071337;28;20032;-56
2023/08/25 09:01:33;;;;;;;44.13;39.45;;;;;;;;;;5069649;28;20319;-59
2023/08/25 09:04:00;;;;;;;48.10;43.13;;;;;;;;;;5068682;28;20048;-55
2023/08/25 09:06:27;;;;;;;49.70;44.58;;;;;;;;;;5069317;28;20075;-58
2023/08/25 09:08:54;;;;;;;52.15;46.97;;;;;;;;;;5069356;28;20033;-54
2023/08/25 09:11:20;;;;;;;54.20;48.50;;;;;;;;;;5073340;28;20060;-54
2023/08/25 09:13:53;;;;;;;51.00;46.05;;;;;;;;;;5074570;28;20033;-57
2023/08/25 09:16:22;;;;;;;51.83;46.70;;;;;;;;;;5070680;28;20013;-53
2023/08/25 09:18:48;;;;;;;56.20;50.47;;;;;;;;;;5052953;28;20017;-57
2023/08/25 09:21:18;;;;;;;57.25;51.45;;;;;;;;;;5070870;28;20539;-56
2023/08/25 09:23:53;;;;;;;53.38;47.85;;;;;;;;;;5070868;28;20028;-56
2023/08/25 09:26:19;;;;;;;52.20;46.53;;;;;;;;;;5070715;28;20029;-55
2023/08/25 09:28:45;;;;;;;52.00;47.08;;;;;;;;;;5071011;28;20397;-56
2023/08/25 09:31:21;;;;;;;49.92;45.22;;;;;;;;;;5070653;28;20025;-54
2023/08/25 09:33:48;;;;;;;52.15;46.83;;;;;;;;;;5070711;28;20108;-59
2023/08/25 09:36:14;;;;;;;53.00;47.38;;;;;;;;;;5070241;28;20059;-55
2023/08/25 09:38:44;;;;;;;47.78;43.28;;;;;;;;;;5070260;28;20410;-58
2023/08/25 09:41:11;;;;;;;48.70;44.08;;;;;;;;;;5071405;28;20024;-55
2023/08/25 09:43:38;;;;;;;47.13;42.45;;;;;;;;;;5074193;28;20562;-58
2023/08/25 09:46:06;;;;;;;47.97;43.17;;;;;;;;;;5073988;28;20024;-57
2023/08/25 09:48:32;;;;;;;;;;;;;;;;;;5074699;28;20021;-58
2023/08/25 09:50:59;;;;;;;46.28;41.30;;;;;;;;;;5068557;28;20296;-58
2023/08/25 09:53:26;;;;;;;43.03;38.95;;;;;;;;;;5044763;28;20032;-59
2023/08/25 09:55:57;;;;;;;44.67;40.15;;;;;;;;;;5063818;28;20028;-58
2023/08/25 09:58:23;;;;;;;42.05;37.72;;;;;;;;;;5062966;28;20028;-57
2023/08/25 10:00:49;;;;;;;42.33;38.22;;;;;;;;;;5065402;28;20408;-57
2023/08/25 10:03:15;;;;;;;42.78;38.38;;;;;;;;;;5065202;28;20493;-58
2023/08/25 10:05:41;;;;;;;41.58;37.40;;;;;;;;;;5062429;28;20019;-58
2023/08/25 10:08:08;;;;;;;43.20;38.83;;;;;;;;;;5045966;28;20480;-60
2023/08/25 10:10:35;;;;;;;42.70;38.38;;;;;;;;;;5064430;28;20027;-60
2023/08/25 10:13:03;;;;;;;44.90;40.47;;;;;;;;;;5062101;28;20029;-57
2023/08/25 10:15:31;;;;;;;43.00;38.65;;;;;;;;;;5045102;28;20024;-61
2023/08/25 10:18:06;;;;;;;44.40;39.70;;;;;;;;;;5064179;28;20036;-60
2023/08/25 10:20:35;;;;;;;40.60;36.90;;;;;;;;;;5054410;28;20485;-59
2023/08/25 10:23:04;;;;;;;40.70;36.63;;;;;;;;;;5073996;28;20033;-61
2023/08/25 10:25:30;;;;;;;40.05;35.97;;;;;;;;;;5073116;28;20024;-60
2023/08/25 10:27:58;;;;;;;41.20;37.15;;;;;;;;;;5073523;28;20139;-60
2023/08/25 10:30:24;;;;;;;40.90;36.88;;;;;;;;;;5073425;28;20037;-60
2023/08/25 10:32:50;;;;;;;40.00;36.25;;;;;;;;;;5070295;28;20033;-59
2023/08/25 10:35:16;;;;;;;39.70;36.08;;;;;;;;;;5064174;28;20025;-61
2023/08/25 10:37:42;;;;;;;39.28;35.60;;;;;;;;;;5054314;28;20056;-61
2023/08/25 10:40:12;;;;;;;39.78;35.92;;;;;;;;;;5053616;28;20497;-60
2023/08/25 10:42:38;;;;;;;41.65;37.60;;;;;;;;;;5053213;28;20544;-61
2023/08/25 10:45:09;;;;;;;41.35;37.33;;;;;;;;;;5053044;28;20493;-62
2023/08/25 10:47:45;;;;;;;40.83;37.00;;;;;;;;;;5068844;28;20031;-59
2023/08/25 10:50:11;;;;;;;43.00;38.83;;;;;;;;;;5050459;28;20493;-59
2023/08/25 10:52:43;;;;;;;44.17;40.08;;;;;;;;;;5052656;28;20083;-57
2023/08/25 10:55:36;;;;;;;42.08;38.17;;;;;;;;;;5054385;28;20496;-54
2023/08/25 10:58:02;;;;;;;50.47;45.58;;;;;;;;;;5068915;28;20102;-59
2023/08/25 11:00:29;;;;;;;49.55;44.70;;;;;;;;;;5055091;28;20031;-56
2023/08/25 11:02:55;;;;;;;45.63;41.20;;;;;;;;;;5072854;28;20025;-58
2023/08/25 11:05:28;;;;;;;45.58;40.95;;;;;;;;;;5066814;28;20033;-58
2023/08/25 11:07:55;;;;;;;46.33;41.92;;;;;;;;;;5052975;28;20468;-58
2023/08/25 11:10:25;;;;;;;44.63;40.22;;;;;;;;;;5036169;28;20018;-59
2023/08/25 11:12:53;;;;;;;47.20;42.35;;;;;;;;;;5052781;28;20509;-60
2023/08/25 11:15:19;;;;;;;45.80;40.97;;;;;;;;;;5052560;28;20103;-58
2023/08/25 11:17:45;;;;;;;46.60;41.65;;;;;;;;;;5034870;28;20079;-58
2023/08/25 11:20:12;;;;;;;46.78;42.08;;;;;;;;;;5055655;28;20035;-56
2023/08/25 11:22:54;;;;;;;46.53;41.80;;;;;;;;;;5060308;28;20048;-61
2023/08/25 11:25:21;;;;;;;47.13;42.13;;;;;;;;;;5059797;28;20032;-59
2023/08/25 11:27:50;;;;;;;46.53;41.95;;;;;;;;;;5062883;28;20024;-57
2023/08/25 11:30:17;;;;;;;43.38;38.78;;;;;;;;;;5061388;28;20020;-58
2023/08/25 11:32:45;;;;;;;42.42;38.08;;;;;;;;;;5072371;28;20023;-61
2023/08/25 11:35:11;;;;;;;46.55;41.72;;;;;;;;;;5072143;28;20024;-61
2023/08/25 11:37:37;;;;;;;42.13;38.17;;;;;;;;;;5072659;28;20025;-56
2023/08/25 11:40:03;;;;;;;43.80;39.40;;;;;;;;;;5072266;28;20024;-55
2023/08/25 11:42:29;;;;;;;45.03;40.40;;;;;;;;;;5071837;28;20128;-60
2023/08/25 11:44:55;;;;;;;45.35;40.90;;;;;;;;;;5053920;28;20028;-60
2023/08/25 11:47:24;;;;;;;44.60;40.40;;;;;;;;;;5072057;28;20035;-61
2023/08/25 11:49:50;;;;;;;42.58;38.55;;;;;;;;;;5072235;28;20515;-56
2023/08/25 11:52:17;;;;;;;40.95;36.92;;;;;;;;;;5071824;28;20066;-58
2023/08/25 11:54:46;;;;;;;40.17;36.38;;;;;;;;;;5071659;28;20024;-59
2023/08/25 11:57:12;;;;;;;39.67;35.70;;;;;;;;;;5071885;28;20150;-59
2023/08/25 11:59:48;;;;;;;39.25;35.63;;;;;;;;;;5071508;28;20437;-59
2023/08/25 12:02:19;;;;;;;38.42;34.53;;;;;;;;;;5071571;28;20096;-58
2023/08/25 12:04:54;;;;;;;40.40;36.10;;;;;;;;;;5070581;28;20074;-59
2023/08/25 12:07:27;;;;;;;38.28;34.55;;;;;;;;;;5071337;28;20051;-58
2023/08/25 12:09:57;;;;;;;36.60;33.08;;;;;;;;;;5071408;28;20135;-59
2023/08/25 12:12:23;;;;;;;37.63;33.72;;;;;;;;;;5071042;28;20033;-61
2023/08/25 12:14:52;;;;;;;36.92;33.53;;;;;;;;;;5071074;28;20028;-56
2023/08/25 12:17:24;;;;;;;33.95;30.83;;;;;;;;;;5071394;28;20111;-59
2023/08/25 12:19:50;;;;;;;34.05;30.92;;;;;;;;;;5071427;28;20024;-57
2023/08/25 12:22:16;;;;;;;33.30;30.20;;;;;;;;;;5071317;28;20021;-59
2023/08/25 12:24:42;;;;;;;33.55;30.55;;;;;;;;;;5070900;28;20021;-59
2023/08/25 12:27:08;;;;;;;32.90;29.75;;;;;;;;;;5071311;28;20064;-59
2023/08/25 12:29:34;;;;;;;31.27;28.33;;;;;;;;;;5053843;28;20024;-61
2023/08/25 12:32:00;;;;;;;32.17;29.08;;;;;;;;;;5055352;28;20029;-60
2023/08/25 12:34:27;;;;;;;31.45;28.42;;;;;;;;;;5072666;28;20157;-59
2023/08/25 12:36:53;;;;;;;31.65;28.55;;;;;;;;;;5071723;28;20151;-62
2023/08/25 12:39:19;;;;;;;29.48;26.60;;;;;;;;;;5071132;28;20063;-62
2023/08/25 12:41:45;;;;;;;30.33;27.30;;;;;;;;;;5053066;28;20032;-60
2023/08/25 12:44:11;;;;;;;27.67;25.17;;;;;;;;;;5072011;28;20048;-62
2023/08/25 12:46:37;;;;;;;26.73;24.13;;;;;;;;;;5067986;28;20060;-59
2023/08/25 12:49:04;;;;;;;26.65;24.20;;;;;;;;;;5058990;28;20067;-60
2023/08/25 12:51:30;;;;;;;24.95;22.65;;;;;;;;;;5060384;28;20032;-60
2023/08/25 12:53:56;;;;;;;24.17;21.83;;;;;;;;;;5053030;28;20508;-58
2023/08/25 12:56:26;;;;;;;24.92;22.38;;;;;;;;;;5050957;28;20033;-57
2023/08/25 12:58:55;;;;;;;23.33;21.13;;;;;;;;;;5053244;28;20017;-61
2023/08/25 13:01:22;;;;;;;23.73;21.33;;;;;;;;;;5052378;28;20032;-59
2023/08/25 13:03:48;;;;;;;24.02;20.02;;;;;;;;;;5057228;28;20013;-59
2023/08/25 13:06:14;;;;;;;21.98;19.77;;;;;;;;;;5070813;28;20099;-58
2023/08/25 13:08:40;;;;;;;22.00;19.80;;;;;;;;;;5052858;28;20174;-61
2023/08/25 13:11:06;;;;;;;21.85;19.50;;;;;;;;;;5070432;28;20552;-60
2023/08/25 13:13:32;;;;;;;19.90;17.85;;;;;;;;;;5070603;28;20103;-57
2023/08/25 13:15:58;;;;;;;19.55;17.55;;;;;;;;;;5074206;28;20397;-58
2023/08/25 13:18:25;;;;;;;19.58;17.58;;;;;;;;;;5059307;28;20039;-61
2023/08/25 13:20:51;;;;;;;19.05;16.90;;;;;;;;;;5059109;28;20028;-63
2023/08/25 13:23:17;;;;;;;17.95;15.75;;;;;;;;;;5072161;28;20064;-61
2023/08/25 13:25:43;;;;;;;17.65;14.23;;;;;;;;;;5041788;28;20029;-60
2023/08/25 13:28:09;;;;;;;16.60;13.50;;;;;;;;;;5076830;28;20106;-62
2023/08/25 13:30:35;;;;;;;18.48;13.50;;;;;;;;;;5077308;28;20153;-60
2023/08/25 13:33:01;;;;;;;16.20;11.63;;;;;;;;;;5076479;28;20029;-62
2023/08/25 13:35:27;;;;;;;16.05;11.15;;;;;;;;;;5075502;28;20385;-59
2023/08/25 13:37:55;;;;;;;15.25;10.77;;;;;;;;;;5076120;28;20040;-61
2023/08/25 13:40:21;;;;;;;15.95;9.40;;;;;;;;;;5076643;28;20035;-61
2023/08/25 13:42:47;;;;;;;15.68;9.20;;;;;;;;;;5074541;28;20032;-59
2023/08/25 13:45:14;;;;;;;15.82;9.00;;;;;;;;;;5037654;28;20021;-60
2023/08/25 13:47:40;;;;;;;16.25;9.05;;;;;;;;;;5055170;28;20159;-63
2023/08/25 13:50:07;;;;;;;15.40;9.00;;;;;;;;;;5054800;28;20013;-62
2023/08/25 13:52:33;;;;;;;16.67;9.95;;;;;;;;;;5056123;28;20028;-60
2023/08/25 13:54:58;;;;;;;17.02;9.77;;;;;;;;;;5056382;28;20033;-63
2023/08/25 13:57:24;;;;;;;16.27;10.18;;;;;;;;;;5057129;28;20024;-61
2023/08/25 13:59:50;;;;;;;16.15;10.60;;;;;;;;;;5039427;28;20029;-60
2023/08/25 14:02:17;;;;;;;16.88;10.43;;;;;;;;;;5056696;28;20059;-62
2023/08/25 14:04:43;;;;;;;17.83;10.50;;;;;;;;;;5056703;28;20024;-62
2023/08/25 14:07:09;;;;;;;15.70;10.25;;;;;;;;;;5056843;28;20099;-60
2023/08/25 14:09:35;;;;;;;15.73;10.48;;;;;;;;;;5056963;28;20048;-63
2023/08/25 14:12:01;;;;;;;17.67;11.18;;;;;;;;;;5056981;28;20496;-62
2023/08/25 14:14:27;;;;;;;15.00;10.13;;;;;;;;;;5056853;28;20278;-62
2023/08/25 14:16:53;;;;;;;15.55;10.88;;;;;;;;;;5057141;28;20052;-62